createdAt,value
2022-08-08T00:00:52.465Z,63.73
2022-08-08T00:01:09.197Z,63.96
2022-08-08T00:02:43.065Z,64.47
2022-08-08T00:03:13.322Z,64.47
2022-08-08T00:04:16.084Z,64.91
2022-08-08T00:05:09.706Z,65.95
2022-08-08T00:06:08.592Z,66.46
2022-08-08T00:07:12.826Z,67.27
2022-08-08T00:08:08.543Z,67.16
2022-08-08T00:09:08.543Z,66.86
2022-08-08T00:10:10.572Z,66.63
2022-08-08T00:11:12.949Z,66.52
2022-08-08T00:12:10.256Z,66.19
2022-08-08T00:13:10.279Z,65.99
2022-08-08T00:14:17.313Z,66.19
2022-08-08T00:15:08.452Z,66.29
2022-08-08T00:16:08.439Z,66.29
2022-08-08T00:17:23.574Z,66.29
2022-08-08T00:18:10.415Z,66.22
2022-08-08T00:19:08.402Z,66.73
2022-08-08T00:20:08.394Z,66.76
2022-08-08T00:21:10.373Z,67.16
2022-08-08T00:22:10.539Z,67.91
2022-08-08T00:23:08.421Z,68.01
2022-08-08T00:24:08.336Z,68.24
2022-08-08T00:25:08.505Z,68.89
2022-08-08T00:26:08.311Z,69.94
2022-08-08T00:27:08.299Z,70.55
2022-08-08T00:28:08.284Z,71.36
2022-08-08T00:29:08.523Z,71.05
2022-08-08T00:30:11.335Z,70.61
2022-08-08T00:32:21.584Z,70.00
2022-08-08T00:32:28.230Z,70.00
2022-08-08T00:33:08.219Z,69.87
2022-08-08T00:34:17.896Z,69.36
2022-08-08T00:35:08.193Z,68.82
2022-08-08T00:36:08.183Z,68.62
2022-08-08T00:37:16.604Z,68.52
2022-08-08T00:38:16.723Z,68.21
2022-08-08T00:41:10.147Z,68.21
2022-08-08T00:41:10.631Z,68.62
2022-08-08T00:41:14.451Z,68.42
2022-08-08T00:42:18.844Z,68.85
2022-08-08T00:43:18.539Z,69.56
2022-08-08T00:44:08.168Z,69.77
2022-08-08T00:45:21.598Z,69.77
2022-08-08T00:46:16.552Z,69.80
2022-08-08T00:47:19.417Z,70.00
2022-08-08T00:48:29.238Z,69.60
2022-08-08T00:49:17.225Z,69.94
2022-08-08T00:50:08.004Z,70.95
2022-08-08T00:51:07.985Z,71.49
2022-08-08T00:52:07.979Z,72.00
2022-08-08T00:53:14.093Z,72.21
2022-08-08T00:54:13.333Z,71.86
2022-08-08T00:55:07.934Z,71.05
2022-08-08T00:56:11.274Z,71.05
2022-08-08T00:57:09.907Z,70.85
2022-08-08T00:58:12.649Z,70.92
2022-08-08T00:59:07.881Z,70.92
2022-08-08T01:00:07.871Z,70.72
2022-08-08T01:01:07.901Z,69.97
2022-08-08T01:03:57.404Z,69.67
2022-08-08T01:03:57.611Z,69.43
2022-08-08T01:04:08.213Z,69.43
2022-08-08T01:05:07.804Z,69.56
2022-08-08T01:06:07.991Z,69.97
2022-08-08T01:07:07.776Z,69.97
2022-08-08T01:08:07.763Z,70.17
2022-08-08T01:09:35.536Z,70.52
2022-08-08T01:10:07.738Z,70.61
2022-08-08T01:11:07.912Z,70.81
2022-08-08T01:12:07.712Z,70.48
2022-08-08T01:13:07.698Z,70.48
2022-08-08T01:14:08.554Z,70.72
2022-08-08T01:15:07.672Z,70.72
2022-08-08T01:16:07.661Z,70.81
2022-08-08T01:17:07.646Z,71.02
2022-08-08T01:18:16.097Z,71.02
2022-08-08T01:19:13.635Z,71.33
2022-08-08T01:20:07.609Z,71.22
2022-08-08T01:21:07.594Z,71.42
2022-08-08T01:22:13.649Z,71.77
2022-08-08T01:23:07.568Z,71.97
2022-08-08T01:24:16.428Z,72.27
2022-08-08T01:25:08.344Z,72.58
2022-08-08T01:26:11.770Z,72.58
2022-08-08T01:27:10.797Z,72.68
2022-08-08T01:28:07.515Z,72.58
2022-08-08T01:29:07.490Z,72.68
2022-08-08T01:30:07.482Z,72.78
2022-08-08T01:31:34.290Z,72.92
2022-08-08T01:32:15.959Z,72.51
2022-08-08T01:33:23.429Z,73.12
2022-08-08T01:34:09.429Z,73.32
2022-08-08T01:35:11.216Z,73.87
2022-08-08T01:36:07.403Z,74.07
2022-08-08T01:37:07.386Z,74.07
2022-08-08T01:38:07.375Z,74.17
2022-08-08T01:39:07.640Z,74.48
2022-08-08T01:40:07.398Z,74.48
2022-08-08T01:41:11.577Z,74.38
2022-08-08T01:42:08.114Z,74.17
2022-08-08T01:43:07.307Z,73.77
2022-08-08T01:44:07.297Z,73.97
2022-08-08T01:45:09.878Z,73.87
2022-08-08T01:46:07.270Z,73.97
2022-08-08T01:47:59.076Z,73.77
2022-08-08T01:48:16.719Z,74.17
2022-08-08T01:49:11.025Z,74.62
2022-08-08T01:50:08.518Z,74.82
2022-08-08T01:51:31.368Z,74.58
2022-08-08T01:52:57.414Z,74.58
2022-08-08T01:55:16.185Z,74.68
2022-08-08T01:55:25.397Z,74.68
2022-08-08T01:55:27.207Z,74.58
2022-08-08T01:56:29.239Z,74.62
2022-08-08T01:57:07.123Z,74.82
2022-08-08T01:58:12.522Z,74.92
2022-08-08T01:59:07.853Z,74.68
2022-08-08T02:00:07.085Z,74.10
2022-08-08T02:01:08.846Z,74.41
2022-08-08T02:02:07.381Z,74.31
2022-08-08T02:03:07.171Z,73.22
2022-08-08T02:04:07.033Z,74.85
2022-08-08T02:05:07.022Z,75.29
2022-08-08T02:06:07.004Z,76.52
2022-08-08T02:07:06.989Z,76.96
2022-08-08T02:08:06.998Z,78.19
2022-08-08T02:09:16.010Z,78.19
2022-08-08T02:10:12.047Z,77.58
2022-08-08T02:11:06.938Z,77.37
2022-08-08T02:12:06.925Z,77.17
2022-08-08T02:13:06.987Z,77.58
2022-08-08T02:14:06.903Z,77.81
2022-08-08T02:15:11.344Z,77.41
2022-08-08T02:16:06.894Z,77.20
2022-08-08T02:17:10.432Z,79.08
2022-08-08T02:18:10.306Z,79.96
2022-08-08T02:19:26.915Z,79.55
2022-08-08T02:20:14.755Z,79.51
2022-08-08T02:22:06.796Z,77.98
2022-08-08T02:23:07.714Z,77.74
2022-08-08T02:24:06.770Z,77.44
2022-08-08T02:25:07.352Z,77.44
2022-08-08T02:26:06.743Z,77.23
2022-08-08T02:27:06.727Z,77.23
2022-08-08T02:28:06.719Z,77.03
2022-08-08T02:29:06.701Z,76.83
2022-08-08T02:30:06.690Z,76.72
2022-08-08T02:31:43.329Z,77.23
2022-08-08T02:32:06.671Z,77.03
2022-08-08T02:33:06.905Z,76.83
2022-08-08T02:34:09.363Z,76.83
2022-08-08T02:35:11.310Z,76.83
2022-08-08T02:36:06.610Z,76.62
2022-08-08T02:37:09.919Z,76.92
2022-08-08T02:38:09.283Z,76.31
2022-08-08T02:39:42.130Z,76.11
2022-08-08T02:40:08.599Z,77.17
2022-08-08T02:41:07.772Z,77.61
2022-08-08T02:42:07.980Z,77.61
2022-08-08T02:44:23.406Z,78.57
2022-08-08T02:44:42.690Z,79.38
2022-08-08T02:45:09.840Z,79.58
2022-08-08T02:46:08.129Z,80.24
2022-08-08T02:47:06.464Z,80.54
2022-08-08T02:48:06.453Z,80.85
2022-08-08T02:49:06.438Z,80.34
2022-08-08T02:50:06.427Z,80.85
2022-08-08T02:51:06.415Z,81.15
2022-08-08T02:52:32.684Z,80.78
2022-08-08T02:53:06.388Z,80.17
2022-08-08T02:54:06.375Z,80.17
2022-08-08T02:55:10.493Z,79.87
2022-08-08T02:56:06.349Z,80.51
2022-08-08T02:57:12.200Z,81.13
2022-08-08T02:58:06.322Z,81.84
2022-08-08T02:59:26.195Z,82.60
2022-08-08T03:00:27.035Z,83.52
2022-08-08T03:01:08.799Z,83.52
2022-08-08T03:02:06.365Z,83.76
2022-08-08T03:03:08.048Z,84.24
2022-08-08T03:05:04.715Z,84.33
2022-08-08T03:05:09.420Z,83.68
2022-08-08T03:06:07.247Z,82.52
2022-08-08T03:07:07.280Z,81.90
2022-08-08T03:08:06.190Z,81.36
2022-08-08T03:09:06.177Z,80.74
2022-08-08T03:10:06.165Z,80.95
2022-08-08T03:11:06.150Z,81.29
2022-08-08T03:12:07.205Z,81.36
2022-08-08T03:13:07.509Z,80.85
2022-08-08T03:15:56.986Z,79.93
2022-08-08T03:15:57.988Z,80.03
2022-08-08T03:16:06.503Z,79.52
2022-08-08T03:17:06.071Z,80.34
2022-08-08T03:18:06.634Z,80.68
2022-08-08T03:19:06.046Z,80.99
2022-08-08T03:20:08.026Z,80.37
2022-08-08T03:21:10.065Z,81.74
2022-08-08T03:22:06.004Z,83.38
2022-08-08T03:23:05.992Z,83.38
2022-08-08T03:24:05.976Z,83.58
2022-08-08T03:25:14.819Z,83.89
2022-08-08T03:26:05.950Z,83.78
2022-08-08T03:27:07.965Z,83.72
2022-08-08T03:28:05.935Z,83.62
2022-08-08T03:29:16.798Z,83.52
2022-08-08T03:30:05.896Z,82.50
2022-08-08T03:31:22.097Z,81.41
2022-08-08T03:32:08.473Z,82.02
2022-08-08T03:33:07.962Z,82.94
2022-08-08T03:34:05.842Z,83.25
2022-08-08T03:35:05.831Z,83.76
2022-08-08T03:36:10.545Z,84.17
2022-08-08T03:37:20.182Z,84.38
2022-08-08T03:38:57.899Z,84.21
2022-08-08T03:39:14.839Z,84.52
2022-08-08T03:40:05.833Z,84.46
2022-08-08T03:41:43.079Z,84.35
2022-08-08T03:42:26.181Z,84.60
2022-08-08T03:43:16.485Z,84.90
2022-08-08T03:44:05.707Z,86.13
2022-08-08T03:46:05.064Z,87.36
2022-08-08T03:46:08.941Z,87.77
2022-08-08T03:47:14.075Z,87.71
2022-08-08T03:48:07.654Z,88.53
2022-08-08T03:49:55.062Z,88.84
2022-08-08T03:50:05.628Z,88.63
2022-08-08T03:51:05.616Z,88.73
2022-08-08T03:52:05.603Z,88.57
2022-08-08T03:53:05.590Z,88.98
2022-08-08T03:54:05.584Z,89.08
2022-08-08T03:55:10.590Z,88.98
2022-08-08T03:56:09.597Z,89.80
2022-08-08T03:58:30.523Z,92.12
2022-08-08T03:58:32.449Z,91.75
2022-08-08T03:59:05.511Z,90.93
2022-08-08T04:00:11.379Z,90.52
2022-08-08T04:01:22.925Z,89.29
2022-08-08T04:02:31.621Z,88.47
2022-08-08T04:03:11.002Z,88.57
2022-08-08T04:04:05.573Z,89.49
2022-08-08T04:05:10.233Z,90.31
2022-08-08T04:06:05.419Z,89.90
2022-08-08T04:07:05.411Z,89.43
2022-08-08T04:08:05.392Z,89.43
2022-08-08T04:09:10.481Z,90.05
2022-08-08T04:11:11.255Z,92.16
2022-08-08T04:12:05.342Z,92.77
2022-08-08T04:13:18.053Z,93.08
2022-08-08T04:14:34.138Z,93.29
2022-08-08T04:15:05.305Z,93.08
2022-08-08T04:16:05.813Z,92.73
2022-08-08T04:17:06.854Z,91.85
2022-08-08T04:18:05.262Z,92.46
2022-08-08T04:19:05.251Z,93.08
2022-08-08T04:20:05.236Z,92.77
2022-08-08T04:21:05.225Z,92.01
2022-08-08T04:22:05.213Z,91.91
2022-08-08T04:23:07.720Z,90.94
2022-08-08T04:24:19.110Z,89.88
2022-08-08T04:25:05.171Z,89.27
2022-08-08T04:26:09.339Z,88.75
2022-08-08T04:27:10.538Z,88.24
2022-08-08T04:28:36.162Z,88.04
2022-08-08T04:29:05.115Z,88.00
2022-08-08T04:30:17.803Z,87.38
2022-08-08T04:31:06.140Z,86.97
2022-08-08T04:32:05.074Z,86.60
2022-08-08T04:33:05.061Z,85.68
2022-08-08T04:34:05.048Z,85.17
2022-08-08T04:35:05.035Z,85.58
2022-08-08T04:36:05.019Z,86.03
2022-08-08T04:37:05.013Z,86.74
2022-08-08T04:38:04.992Z,87.06
2022-08-08T04:40:04.620Z,87.26
2022-08-08T04:40:10.492Z,87.56
2022-08-08T04:41:05.022Z,88.69
2022-08-08T04:42:04.938Z,89.20
2022-08-08T04:43:05.568Z,90.43
2022-08-08T04:44:04.915Z,90.39
2022-08-08T04:45:04.899Z,89.02
2022-08-08T04:46:04.883Z,87.85
2022-08-08T04:47:04.873Z,87.10
2022-08-08T04:48:04.860Z,85.97
2022-08-08T04:49:06.419Z,85.01
2022-08-08T04:50:06.038Z,84.60
2022-08-08T04:51:04.822Z,84.60
2022-08-08T04:52:04.810Z,84.19
2022-08-08T04:53:52.125Z,84.40
2022-08-08T04:54:39.150Z,84.40
2022-08-08T04:55:05.861Z,84.09
2022-08-08T04:56:04.753Z,83.99
2022-08-08T04:57:04.743Z,83.85
2022-08-08T04:58:08.174Z,83.54
2022-08-08T04:59:04.715Z,83.03
2022-08-08T05:00:04.702Z,82.62
2022-08-08T05:01:09.141Z,82.48
2022-08-08T05:02:04.789Z,81.97
2022-08-08T05:03:05.569Z,81.97
2022-08-08T05:04:10.768Z,81.42
2022-08-08T05:05:04.834Z,81.12
2022-08-08T05:06:13.249Z,80.81
2022-08-08T05:07:04.611Z,80.26
2022-08-08T05:08:04.596Z,80.26
2022-08-08T05:09:06.194Z,79.75
2022-08-08T05:10:04.569Z,79.75
2022-08-08T05:11:04.557Z,79.55
2022-08-08T05:12:04.547Z,79.44
2022-08-08T05:13:04.531Z,79.85
2022-08-08T05:14:04.537Z,80.40
2022-08-08T05:15:05.221Z,80.91
2022-08-08T05:16:51.930Z,81.22
2022-08-08T05:17:09.009Z,81.32
2022-08-08T05:18:04.462Z,80.98
2022-08-08T05:19:04.454Z,80.67
2022-08-08T05:20:14.173Z,80.46
2022-08-08T05:21:05.602Z,80.12
2022-08-08T05:22:04.431Z,80.02
2022-08-08T05:23:04.398Z,79.82
2022-08-08T05:24:08.676Z,80.12
2022-08-08T05:25:04.374Z,79.92
2022-08-08T05:26:04.358Z,79.62
2022-08-08T05:27:04.347Z,79.31
2022-08-08T05:28:04.331Z,79.71
2022-08-08T05:29:06.066Z,79.78
2022-08-08T05:30:04.305Z,79.37
2022-08-08T05:31:08.558Z,79.13
2022-08-08T05:32:06.521Z,78.69
2022-08-08T05:33:04.268Z,77.63
2022-08-08T05:34:04.254Z,75.73
2022-08-08T05:35:04.939Z,74.37
2022-08-08T05:36:04.228Z,73.52
2022-08-08T05:37:15.745Z,72.68
2022-08-08T05:38:04.201Z,71.94
2022-08-08T05:39:04.248Z,71.29
2022-08-08T05:40:04.173Z,70.05
2022-08-08T05:41:04.162Z,69.78
2022-08-08T05:42:04.148Z,68.43
2022-08-08T05:43:15.532Z,67.38
2022-08-08T05:44:04.878Z,67.62
2022-08-08T05:45:10.453Z,67.75
2022-08-08T05:46:04.286Z,68.66
2022-08-08T05:47:04.848Z,68.86
2022-08-08T05:48:08.754Z,68.66
2022-08-08T05:49:08.819Z,68.35
2022-08-08T05:50:04.043Z,67.95
2022-08-08T05:51:13.452Z,67.82
2022-08-08T05:52:04.018Z,66.67
2022-08-08T05:53:54.861Z,66.44
2022-08-08T05:54:26.694Z,66.13
2022-08-08T05:55:08.925Z,66.10
2022-08-08T05:56:10.410Z,65.57
2022-08-08T05:57:04.748Z,64.70
2022-08-08T05:58:17.449Z,64.54
2022-08-08T05:59:04.154Z,62.46
2022-08-08T06:00:22.628Z,61.12
2022-08-08T06:01:04.886Z,60.06
2022-08-08T06:02:03.885Z,59.22
2022-08-08T06:03:03.952Z,57.46
2022-08-08T06:04:08.400Z,56.76
2022-08-08T06:05:33.055Z,56.93
2022-08-08T06:06:05.230Z,56.33
2022-08-08T06:07:03.827Z,56.53
2022-08-08T06:08:09.496Z,56.18
2022-08-08T06:09:58.894Z,54.57
2022-08-08T06:10:03.780Z,54.37
2022-08-08T06:11:04.239Z,54.32
2022-08-08T06:12:03.755Z,55.05
2022-08-08T06:13:03.856Z,56.98
2022-08-08T06:14:03.731Z,55.55
2022-08-08T06:15:04.011Z,55.18
2022-08-08T06:16:03.702Z,56.15
2022-08-08T06:17:03.696Z,55.32
2022-08-08T06:18:20.920Z,54.80
2022-08-08T06:19:03.948Z,55.15
2022-08-08T06:20:03.650Z,55.88
2022-08-08T06:21:11.497Z,56.84
2022-08-08T06:23:03.613Z,57.57
2022-08-08T06:24:05.444Z,57.84
2022-08-08T06:25:03.589Z,56.68
2022-08-08T06:26:43.395Z,55.23
2022-08-08T06:27:03.560Z,54.62
2022-08-08T06:28:03.546Z,54.87
2022-08-08T06:29:03.537Z,53.59
2022-08-08T06:30:05.522Z,52.31
2022-08-08T06:31:03.538Z,52.61
2022-08-08T06:32:10.015Z,51.31
2022-08-08T06:33:03.505Z,49.37
2022-08-08T06:34:26.306Z,50.11
2022-08-08T06:36:06.030Z,52.27
2022-08-08T06:36:09.241Z,51.84
2022-08-08T06:37:24.044Z,49.07
2022-08-08T06:38:03.418Z,49.29
2022-08-08T06:39:06.819Z,48.22
2022-08-08T06:40:03.436Z,47.39
2022-08-08T06:41:03.399Z,46.43
2022-08-08T06:42:03.374Z,45.42
2022-08-08T06:43:03.357Z,44.48
2022-08-08T06:44:03.342Z,43.66
2022-08-08T06:45:05.374Z,43.76
2022-08-08T06:46:03.320Z,44.30
2022-08-08T06:47:03.306Z,46.11
2022-08-08T06:48:04.477Z,44.58
2022-08-08T06:49:03.281Z,44.94
2022-08-08T06:50:04.154Z,46.28
2022-08-08T06:51:07.456Z,44.70
2022-08-08T06:52:03.240Z,43.96
2022-08-08T06:53:14.049Z,42.74
2022-08-08T06:54:05.215Z,42.01
2022-08-08T06:55:03.203Z,40.97
2022-08-08T06:56:03.485Z,40.04
2022-08-08T06:57:03.190Z,39.75
2022-08-08T06:58:04.100Z,38.81
2022-08-08T06:59:12.202Z,38.18
2022-08-08T07:00:12.263Z,37.37
2022-08-08T07:01:52.187Z,36.65
2022-08-08T07:02:26.769Z,36.34
2022-08-08T07:03:04.900Z,36.15
2022-08-08T07:04:41.444Z,35.84
2022-08-08T07:05:05.209Z,35.63
2022-08-08T07:06:03.066Z,35.43
2022-08-08T07:07:10.655Z,35.40
2022-08-08T07:08:03.157Z,34.24
2022-08-08T07:09:03.028Z,34.54
2022-08-08T07:10:03.022Z,34.46
2022-08-08T07:11:03.004Z,34.77
2022-08-08T07:12:02.990Z,35.26
2022-08-08T07:13:02.982Z,35.69
2022-08-08T07:14:02.970Z,37.12
2022-08-08T07:15:04.512Z,36.38
2022-08-08T07:16:07.047Z,35.69
2022-08-08T07:17:02.928Z,35.48
2022-08-08T07:18:35.547Z,35.18
2022-08-08T07:19:02.995Z,34.87
2022-08-08T07:20:02.887Z,35.16
2022-08-08T07:21:04.856Z,34.79
2022-08-08T07:22:05.650Z,36.01
2022-08-08T07:23:02.856Z,36.10
2022-08-08T07:24:03.803Z,36.09
2022-08-08T07:25:02.827Z,35.89
2022-08-08T07:26:02.812Z,35.69
2022-08-08T07:27:05.683Z,35.48
2022-08-08T07:28:07.651Z,35.18
2022-08-08T07:29:05.629Z,36.09
2022-08-08T07:30:05.724Z,35.77
2022-08-08T07:31:02.753Z,36.17
2022-08-08T07:32:02.748Z,35.35
2022-08-08T07:33:02.727Z,35.04
2022-08-08T07:34:02.714Z,34.00
2022-08-08T07:35:03.085Z,33.08
2022-08-08T07:36:02.690Z,32.88
2022-08-08T07:37:02.677Z,32.39
2022-08-08T07:38:09.799Z,32.37
2022-08-08T07:39:04.701Z,31.88
2022-08-08T07:40:02.805Z,32.29
2022-08-08T07:41:04.771Z,32.28
2022-08-08T07:42:04.050Z,31.86
2022-08-08T07:43:02.603Z,31.76
2022-08-08T07:44:05.885Z,32.48
2022-08-08T07:45:02.577Z,32.78
2022-08-08T07:46:17.442Z,32.50
2022-08-08T07:47:02.552Z,34.46
2022-08-08T07:48:02.540Z,35.07
2022-08-08T07:49:02.527Z,34.83
2022-08-08T07:50:02.516Z,34.01
2022-08-08T07:51:02.509Z,33.09
2022-08-08T07:52:02.494Z,32.75
2022-08-08T07:53:02.482Z,31.97
2022-08-08T07:54:03.642Z,32.04
2022-08-08T07:55:02.453Z,31.73
2022-08-08T07:56:02.442Z,31.32
2022-08-08T07:57:02.428Z,31.53
2022-08-08T07:58:02.418Z,31.12
2022-08-08T07:59:02.404Z,30.71
2022-08-08T08:00:02.393Z,30.38
2022-08-08T08:01:02.446Z,30.40
2022-08-08T08:02:33.417Z,30.41
2022-08-08T08:03:02.355Z,30.59
2022-08-08T08:04:02.345Z,30.41
2022-08-08T08:05:03.632Z,31.46
2022-08-08T08:06:02.322Z,32.26
2022-08-08T08:07:02.307Z,32.06
2022-08-08T08:08:02.297Z,32.06
2022-08-08T08:09:02.293Z,31.56
2022-08-08T08:10:02.667Z,31.34
2022-08-08T08:11:02.258Z,30.74
2022-08-08T08:12:02.248Z,31.03
2022-08-08T08:13:02.235Z,31.02
2022-08-08T08:14:08.110Z,31.12
2022-08-08T08:15:04.903Z,30.92
2022-08-08T08:16:02.200Z,30.41
2022-08-08T08:17:02.199Z,30.40
2022-08-08T08:18:02.178Z,30.71
2022-08-08T08:19:02.162Z,30.82
2022-08-08T08:20:02.158Z,30.20
2022-08-08T08:21:02.141Z,30.20
2022-08-08T08:22:02.425Z,29.99
2022-08-08T08:23:02.122Z,29.38
2022-08-08T08:24:02.891Z,29.16
2022-08-08T08:25:07.965Z,29.16
2022-08-08T08:26:02.089Z,28.86
2022-08-08T08:27:02.760Z,28.86
2022-08-08T08:28:02.991Z,28.76
2022-08-08T08:29:02.141Z,29.08
2022-08-08T08:30:02.038Z,29.68
2022-08-08T08:31:02.025Z,29.07
2022-08-08T08:32:03.355Z,29.00
2022-08-08T08:33:02.000Z,29.39
2022-08-08T08:34:01.990Z,29.39
2022-08-08T08:35:03.544Z,29.29
2022-08-08T08:36:19.423Z,29.08
2022-08-08T08:37:07.849Z,28.77
2022-08-08T08:38:18.786Z,28.64
2022-08-08T08:39:07.574Z,28.14
2022-08-08T08:40:03.107Z,27.24
2022-08-08T08:41:03.200Z,26.72
2022-08-08T08:42:01.893Z,26.61
2022-08-08T08:43:01.879Z,27.44
2022-08-08T08:44:13.901Z,27.75
2022-08-08T08:45:01.862Z,27.74
2022-08-08T08:46:05.793Z,27.34
2022-08-08T08:47:01.833Z,26.83
2022-08-08T08:48:01.823Z,26.93
2022-08-08T08:49:01.809Z,26.92
2022-08-08T08:50:01.811Z,26.51
2022-08-08T08:51:01.785Z,26.62
2022-08-08T08:52:01.779Z,26.33
2022-08-08T08:53:04.727Z,29.40
2022-08-08T08:54:01.757Z,29.91
2022-08-08T08:55:01.739Z,29.38
2022-08-08T08:56:02.785Z,28.66
2022-08-08T08:57:01.739Z,28.03
2022-08-08T08:58:01.706Z,27.31
2022-08-08T08:59:01.693Z,26.62
2022-08-08T09:00:04.776Z,26.60
2022-08-08T09:01:08.498Z,26.01
2022-08-08T09:02:03.747Z,27.56
2022-08-08T09:03:01.645Z,27.16
2022-08-08T09:04:01.638Z,27.75
2022-08-08T09:05:01.622Z,27.34
2022-08-08T09:06:01.613Z,26.92
2022-08-08T09:07:01.599Z,27.05
2022-08-08T09:08:13.086Z,26.83
2022-08-08T09:09:01.578Z,26.42
2022-08-08T09:10:04.636Z,25.68
2022-08-08T09:11:01.552Z,25.29
2022-08-08T09:12:07.846Z,24.71
2022-08-08T09:13:03.529Z,24.84
2022-08-08T09:14:01.526Z,24.43
2022-08-08T09:15:01.508Z,25.25
2022-08-08T09:16:03.469Z,24.56
2022-08-08T09:17:05.465Z,23.96
2022-08-08T09:18:02.111Z,24.26
2022-08-08T09:19:01.459Z,25.31
2022-08-08T09:21:57.058Z,25.59
2022-08-08T09:22:01.642Z,25.70
2022-08-08T09:22:06.204Z,25.00
2022-08-08T09:23:01.424Z,24.59
2022-08-08T09:24:01.408Z,24.69
2022-08-08T09:25:01.391Z,24.10
2022-08-08T09:26:02.149Z,23.90
2022-08-08T09:27:01.368Z,23.80
2022-08-08T09:28:01.646Z,24.49
2022-08-08T09:29:04.197Z,24.40
2022-08-08T09:30:01.338Z,24.08
2022-08-08T09:31:01.324Z,23.57
2022-08-08T09:32:03.311Z,22.85
2022-08-08T09:33:54.855Z,22.66
2022-08-08T09:34:31.492Z,22.55
2022-08-08T09:35:05.186Z,22.45
2022-08-08T09:36:03.265Z,22.65
2022-08-08T09:37:39.405Z,22.66
2022-08-08T09:38:02.638Z,22.66
2022-08-08T09:39:01.283Z,22.46
2022-08-08T09:40:01.298Z,23.16
2022-08-08T09:41:01.205Z,22.56
2022-08-08T09:42:20.908Z,22.56
2022-08-08T09:43:16.371Z,22.07
2022-08-08T09:44:05.026Z,22.16
2022-08-08T09:45:04.069Z,22.57
2022-08-08T09:46:03.243Z,23.48
2022-08-08T09:47:05.079Z,22.97
2022-08-08T09:48:04.143Z,23.18
2022-08-08T09:49:17.943Z,23.18
2022-08-08T09:50:03.388Z,22.77
2022-08-08T09:51:04.639Z,22.17
2022-08-08T09:52:07.156Z,21.97
2022-08-08T09:53:24.359Z,21.86
2022-08-08T09:54:08.509Z,21.58
2022-08-08T09:55:03.044Z,22.36
2022-08-08T09:56:05.195Z,21.97
2022-08-08T09:57:01.022Z,21.69
2022-08-08T09:58:01.011Z,21.30
2022-08-08T09:59:00.997Z,22.08
2022-08-08T10:00:31.602Z,21.88
2022-08-08T10:01:02.975Z,21.99
2022-08-08T10:02:06.540Z,21.90
2022-08-08T10:03:00.955Z,22.00
2022-08-08T10:04:02.218Z,21.97
2022-08-08T10:05:00.968Z,21.66
2022-08-08T10:06:01.029Z,20.89
2022-08-08T10:07:00.909Z,21.10
2022-08-08T10:08:01.515Z,20.81
2022-08-08T10:09:00.882Z,20.30
2022-08-08T10:10:01.756Z,20.30
2022-08-08T10:11:00.860Z,20.69
2022-08-08T10:12:27.310Z,21.10
2022-08-08T10:13:14.276Z,21.22
2022-08-08T10:14:00.827Z,21.51
2022-08-08T10:15:01.102Z,21.71
2022-08-08T10:16:02.029Z,22.01
2022-08-08T10:17:00.791Z,21.62
2022-08-08T10:18:09.101Z,21.72
2022-08-08T10:19:00.801Z,21.90
2022-08-08T10:20:00.839Z,21.91
2022-08-08T10:21:03.634Z,22.11
2022-08-08T10:22:02.734Z,21.92
2022-08-08T10:24:00.716Z,21.90
2022-08-08T10:25:01.313Z,22.11
2022-08-08T10:26:00.688Z,22.21
2022-08-08T10:27:00.685Z,22.11
2022-08-08T10:28:00.675Z,22.01
2022-08-08T10:29:00.652Z,21.79
2022-08-08T10:30:00.662Z,21.39
2022-08-08T10:31:01.995Z,21.09
2022-08-08T10:32:00.625Z,21.20
2022-08-08T10:33:00.980Z,21.20
2022-08-08T10:34:20.108Z,21.80
2022-08-08T10:35:01.311Z,22.18
2022-08-08T10:36:07.728Z,21.69
2022-08-08T10:37:00.559Z,21.38
2022-08-08T10:38:00.549Z,21.17
2022-08-08T10:39:00.560Z,20.47
2022-08-08T10:40:07.050Z,20.77
2022-08-08T10:41:00.512Z,20.37
2022-08-08T10:42:14.867Z,20.56
2022-08-08T10:43:00.489Z,20.66
2022-08-08T10:44:00.480Z,20.97
2022-08-08T10:45:00.466Z,20.98
2022-08-08T10:46:00.456Z,21.00
2022-08-08T10:47:00.443Z,21.92
2022-08-08T10:48:00.433Z,22.33
2022-08-08T10:49:00.419Z,22.03
2022-08-08T10:50:02.990Z,21.92
2022-08-08T10:51:00.397Z,21.91
2022-08-08T10:52:00.389Z,21.80
2022-08-08T10:53:00.375Z,22.01
2022-08-08T10:54:02.282Z,21.72
2022-08-08T10:55:00.360Z,21.82
2022-08-08T10:56:00.344Z,21.41
2022-08-08T10:57:00.329Z,21.20
2022-08-08T10:58:00.322Z,20.98
2022-08-08T10:59:00.308Z,20.88
2022-08-08T11:00:00.294Z,20.89
2022-08-08T11:01:04.006Z,21.19
2022-08-08T11:02:00.385Z,21.19
2022-08-08T11:03:00.258Z,20.89
2022-08-08T11:04:02.543Z,20.88
2022-08-08T11:05:00.241Z,20.99
2022-08-08T11:06:00.595Z,21.28
2022-08-08T11:07:00.211Z,21.19
2022-08-08T11:08:36.371Z,21.10
2022-08-08T11:09:00.205Z,21.79
2022-08-08T11:10:00.182Z,21.58
2022-08-08T11:11:00.170Z,21.06
2022-08-08T11:12:12.469Z,20.66
2022-08-08T11:13:27.938Z,20.26
2022-08-08T11:14:02.145Z,20.05
2022-08-08T11:15:00.265Z,19.86
2022-08-08T11:16:07.395Z,20.79
2022-08-08T11:17:00.099Z,20.79
2022-08-08T11:18:02.275Z,20.48
2022-08-08T11:19:00.097Z,20.27
2022-08-08T11:20:04.039Z,20.25
2022-08-08T11:21:00.063Z,19.87
2022-08-08T11:22:00.050Z,20.08
2022-08-08T11:23:00.035Z,20.40
2022-08-08T11:24:02.330Z,20.69
2022-08-08T11:25:00.011Z,20.48
2022-08-08T11:26:00.002Z,20.99
2022-08-08T11:26:59.989Z,21.40
2022-08-08T11:27:59.981Z,21.60
2022-08-08T11:28:59.967Z,21.21
2022-08-08T11:30:19.666Z,21.92
2022-08-08T11:31:00.286Z,21.51
2022-08-08T11:31:59.933Z,21.20
2022-08-08T11:32:59.937Z,20.68
2022-08-08T11:34:02.941Z,20.08
2022-08-08T11:35:10.597Z,19.77
2022-08-08T11:35:59.893Z,19.87
2022-08-08T11:36:59.878Z,20.36
2022-08-08T11:38:39.211Z,20.17
2022-08-08T11:38:59.854Z,20.27
2022-08-08T11:39:59.903Z,19.97
2022-08-08T11:40:59.832Z,19.78
2022-08-08T11:41:59.821Z,19.66
2022-08-08T11:42:59.809Z,19.58
2022-08-08T11:43:59.817Z,19.16
2022-08-08T11:44:59.785Z,18.76
2022-08-08T11:46:14.305Z,19.07
2022-08-08T11:47:01.763Z,18.97
2022-08-08T11:48:05.088Z,19.07
2022-08-08T11:49:01.741Z,18.86
2022-08-08T11:49:59.731Z,18.75
2022-08-08T11:50:59.720Z,18.55
2022-08-08T11:51:59.713Z,18.47
2022-08-08T11:52:59.700Z,18.48
2022-08-08T11:54:01.908Z,18.67
2022-08-08T11:54:59.749Z,18.77
2022-08-08T11:55:59.667Z,18.88
2022-08-08T11:56:59.659Z,19.56
2022-08-08T11:58:04.180Z,19.56
2022-08-08T11:58:59.642Z,19.18
2022-08-08T12:00:01.037Z,19.49
2022-08-08T12:01:00.064Z,19.58
2022-08-08T12:02:21.279Z,19.28
2022-08-08T12:02:59.628Z,19.18
2022-08-08T12:03:59.886Z,19.08
2022-08-08T12:04:59.572Z,19.38
2022-08-08T12:05:59.608Z,19.09
2022-08-08T12:06:59.549Z,18.89
2022-08-08T12:07:59.537Z,18.60
2022-08-08T12:08:59.527Z,19.61
2022-08-08T12:10:03.733Z,19.70
2022-08-08T12:10:59.504Z,19.89
2022-08-08T12:11:59.490Z,19.38
2022-08-08T12:12:59.479Z,18.97
2022-08-08T12:14:03.933Z,18.88
2022-08-08T12:14:59.457Z,19.09
2022-08-08T12:15:59.463Z,19.28
2022-08-08T12:16:59.434Z,18.78
2022-08-08T12:18:00.153Z,18.98
2022-08-08T12:18:59.434Z,19.18
2022-08-08T12:19:59.398Z,19.08
2022-08-08T12:21:00.016Z,19.00
2022-08-08T12:22:05.416Z,18.98
2022-08-08T12:23:01.365Z,18.57
2022-08-08T12:24:00.316Z,18.07
2022-08-08T12:24:59.342Z,18.17
2022-08-08T12:25:59.407Z,19.29
2022-08-08T12:26:59.426Z,19.29
2022-08-08T12:27:59.359Z,19.40
2022-08-08T12:28:59.295Z,19.40
2022-08-08T12:29:59.281Z,19.28
2022-08-08T12:30:59.389Z,18.98
2022-08-08T12:31:59.259Z,18.96
2022-08-08T12:32:59.250Z,18.87
2022-08-08T12:34:02.704Z,18.97
2022-08-08T12:35:16.805Z,18.88
2022-08-08T12:36:01.211Z,19.28
2022-08-08T12:36:59.203Z,19.39
2022-08-08T12:38:02.537Z,19.70
2022-08-08T12:38:59.181Z,19.79
2022-08-08T12:40:02.060Z,20.30
2022-08-08T12:41:18.362Z,20.20
2022-08-08T12:42:01.780Z,19.61
2022-08-08T12:42:59.133Z,19.61
2022-08-08T12:44:00.434Z,19.49
2022-08-08T12:44:59.113Z,19.18
2022-08-08T12:46:03.410Z,18.98
2022-08-08T12:47:00.180Z,20.00
2022-08-08T12:48:09.758Z,20.20
2022-08-08T12:49:24.903Z,20.53
2022-08-08T12:50:01.050Z,20.64
2022-08-08T12:50:59.040Z,21.03
2022-08-08T12:52:00.654Z,21.23
2022-08-08T12:52:59.017Z,20.72
2022-08-08T12:53:59.463Z,20.51
2022-08-08T12:54:58.995Z,20.00
2022-08-08T12:56:19.234Z,19.59